sensor_id;sensor_type;location;lat;lon;timestamp;P1;durP1;ratioP1;P2;durP2;ratioP2
17842;SDS011;69286;48.222;16.332;2023-08-06T00:02:25;0.80;;;0.80;;
17842;SDS011;69286;48.222;16.332;2023-08-06T00:04:52;0.80;;;0.80;;
17842;SDS011;69286;48.222;16.332;2023-08-06T00:07:18;0.80;;;0.80;;
17842;SDS011;69286;48.222;16.332;2023-08-06T00:09:45;0.90;;;0.90;;
17842;SDS011;69286;48.222;16.332;2023-08-06T00:12:12;0.90;;;0.90;;
17842;SDS011;69286;48.222;16.332;2023-08-06T00:14:41;0.77;;;0.77;;
17842;SDS011;69286;48.222;16.332;2023-08-06T00:17:08;0.80;;;0.80;;
17842;SDS011;69286;48.222;16.332;2023-08-06T00:19:34;0.80;;;0.80;;
17842;SDS011;69286;48.222;16.332;2023-08-06T00:22:01;0.80;;;0.80;;
17842;SDS011;69286;48.222;16.332;2023-08-06T00:24:28;0.80;;;0.80;;
17842;SDS011;69286;48.222;16.332;2023-08-06T00:26:55;0.70;;;0.70;;
17842;SDS011;69286;48.222;16.332;2023-08-06T00:29:22;0.70;;;0.70;;
17842;SDS011;69286;48.222;16.332;2023-08-06T00:31:51;0.83;;;0.83;;
17842;SDS011;69286;48.222;16.332;2023-08-06T00:34:17;0.80;;;0.80;;
17842;SDS011;69286;48.222;16.332;2023-08-06T00:36:44;0.80;;;0.80;;
17842;SDS011;69286;48.222;16.332;2023-08-06T00:39:11;0.70;;;0.70;;
17842;SDS011;69286;48.222;16.332;2023-08-06T00:41:38;0.83;;;0.83;;
17842;SDS011;69286;48.222;16.332;2023-08-06T00:44:05;0.90;;;0.90;;
17842;SDS011;69286;48.222;16.332;2023-08-06T00:46:32;1.90;;;0.90;;
17842;SDS011;69286;48.222;16.332;2023-08-06T00:49:02;0.70;;;0.70;;
17842;SDS011;69286;48.222;16.332;2023-08-06T00:51:29;0.80;;;0.80;;
17842;SDS011;69286;48.222;16.332;2023-08-06T00:53:56;0.90;;;0.90;;
17842;SDS011;69286;48.222;16.332;2023-08-06T00:56:23;0.93;;;0.80;;
17842;SDS011;69286;48.222;16.332;2023-08-06T00:58:51;0.90;;;0.90;;
17842;SDS011;69286;48.222;16.332;2023-08-06T01:01:18;1.00;;;1.00;;
17842;SDS011;69286;48.222;16.332;2023-08-06T01:03:46;0.90;;;0.90;;
17842;SDS011;69286;48.222;16.332;2023-08-06T01:06:14;1.07;;;0.97;;
17842;SDS011;69286;48.222;16.332;2023-08-06T01:08:47;1.50;;;1.10;;
17842;SDS011;69286;48.222;16.332;2023-08-06T01:11:21;1.87;;;1.17;;
17842;SDS011;69286;48.222;16.332;2023-08-06T01:13:58;0.90;;;0.90;;
17842;SDS011;69286;48.222;16.332;2023-08-06T01:16:28;1.00;;;1.00;;
17842;SDS011;69286;48.222;16.332;2023-08-06T01:18:56;1.70;;;0.90;;
17842;SDS011;69286;48.222;16.332;2023-08-06T01:21:26;1.50;;;0.90;;
17842;SDS011;69286;48.222;16.332;2023-08-06T01:23:53;0.80;;;0.80;;
17842;SDS011;69286;48.222;16.332;2023-08-06T01:26:22;0.70;;;0.70;;
17842;SDS011;69286;48.222;16.332;2023-08-06T01:28:58;1.67;;;0.80;;
17842;SDS011;69286;48.222;16.332;2023-08-06T01:31:30;0.77;;;0.77;;
17842;SDS011;69286;48.222;16.332;2023-08-06T01:33:58;2.73;;;1.00;;
17842;SDS011;69286;48.222;16.332;2023-08-06T01:36:27;0.80;;;0.80;;
17842;SDS011;69286;48.222;16.332;2023-08-06T01:38:56;1.07;;;0.80;;
17842;SDS011;69286;48.222;16.332;2023-08-06T01:41:23;0.67;;;0.67;;
17842;SDS011;69286;48.222;16.332;2023-08-06T01:43:50;0.80;;;0.80;;
17842;SDS011;69286;48.222;16.332;2023-08-06T01:46:17;0.90;;;0.90;;
17842;SDS011;69286;48.222;16.332;2023-08-06T01:48:44;0.80;;;0.80;;
17842;SDS011;69286;48.222;16.332;2023-08-06T01:51:11;0.90;;;0.90;;
17842;SDS011;69286;48.222;16.332;2023-08-06T01:53:40;0.77;;;0.77;;
17842;SDS011;69286;48.222;16.332;2023-08-06T01:56:07;0.80;;;0.80;;
17842;SDS011;69286;48.222;16.332;2023-08-06T01:58:33;0.97;;;0.97;;
17842;SDS011;69286;48.222;16.332;2023-08-06T02:01:00;1.00;;;1.00;;
17842;SDS011;69286;48.222;16.332;2023-08-06T02:03:27;0.90;;;0.90;;
17842;SDS011;69286;48.222;16.332;2023-08-06T02:05:54;0.80;;;0.80;;
17842;SDS011;69286;48.222;16.332;2023-08-06T02:08:22;1.20;;;1.10;;
17842;SDS011;69286;48.222;16.332;2023-08-06T02:10:50;0.90;;;0.90;;
17842;SDS011;69286;48.222;16.332;2023-08-06T02:13:17;0.90;;;0.90;;
17842;SDS011;69286;48.222;16.332;2023-08-06T02:15:44;0.90;;;0.90;;
17842;SDS011;69286;48.222;16.332;2023-08-06T02:18:12;1.07;;;1.07;;
17842;SDS011;69286;48.222;16.332;2023-08-06T02:20:39;0.90;;;0.90;;
17842;SDS011;69286;48.222;16.332;2023-08-06T02:23:07;0.97;;;0.90;;
17842;SDS011;69286;48.222;16.332;2023-08-06T02:25:34;1.00;;;1.00;;
17842;SDS011;69286;48.222;16.332;2023-08-06T02:28:02;1.30;;;1.20;;
17842;SDS011;69286;48.222;16.332;2023-08-06T02:30:29;1.07;;;1.07;;
17842;SDS011;69286;48.222;16.332;2023-08-06T02:32:56;1.10;;;1.10;;
17842;SDS011;69286;48.222;16.332;2023-08-06T02:35:23;1.30;;;1.30;;
17842;SDS011;69286;48.222;16.332;2023-08-06T02:37:50;1.23;;;1.07;;
17842;SDS011;69286;48.222;16.332;2023-08-06T02:40:17;1.10;;;1.10;;
17842;SDS011;69286;48.222;16.332;2023-08-06T02:42:44;1.43;;;1.33;;
17842;SDS011;69286;48.222;16.332;2023-08-06T02:45:12;1.20;;;1.20;;
17842;SDS011;69286;48.222;16.332;2023-08-06T02:47:39;1.30;;;1.30;;
17842;SDS011;69286;48.222;16.332;2023-08-06T02:50:06;1.37;;;1.30;;
17842;SDS011;69286;48.222;16.332;2023-08-06T02:52:34;1.10;;;1.10;;
17842;SDS011;69286;48.222;16.332;2023-08-06T02:55:04;1.37;;;1.17;;
17842;SDS011;69286;48.222;16.332;2023-08-06T02:57:31;1.50;;;1.40;;
17842;SDS011;69286;48.222;16.332;2023-08-06T02:59:58;1.20;;;1.20;;
17842;SDS011;69286;48.222;16.332;2023-08-06T03:02:26;1.40;;;1.40;;
17842;SDS011;69286;48.222;16.332;2023-08-06T03:04:54;1.40;;;1.30;;
17842;SDS011;69286;48.222;16.332;2023-08-06T03:07:21;1.53;;;1.43;;
17842;SDS011;69286;48.222;16.332;2023-08-06T03:09:48;1.70;;;1.60;;
17842;SDS011;69286;48.222;16.332;2023-08-06T03:12:15;2.00;;;1.30;;
17842;SDS011;69286;48.222;16.332;2023-08-06T03:14:42;1.30;;;1.30;;
17842;SDS011;69286;48.222;16.332;2023-08-06T03:17:09;1.30;;;1.30;;
17842;SDS011;69286;48.222;16.332;2023-08-06T03:19:38;1.70;;;1.60;;
17842;SDS011;69286;48.222;16.332;2023-08-06T03:22:05;1.40;;;1.30;;
17842;SDS011;69286;48.222;16.332;2023-08-06T03:24:32;1.37;;;1.33;;
17842;SDS011;69286;48.222;16.332;2023-08-06T03:26:59;1.60;;;1.50;;
17842;SDS011;69286;48.222;16.332;2023-08-06T03:29:26;1.53;;;1.43;;
17842;SDS011;69286;48.222;16.332;2023-08-06T03:31:53;2.70;;;1.60;;
17842;SDS011;69286;48.222;16.332;2023-08-06T03:34:20;1.70;;;1.60;;
17842;SDS011;69286;48.222;16.332;2023-08-06T03:36:49;1.47;;;1.40;;
17842;SDS011;69286;48.222;16.332;2023-08-06T03:39:16;1.63;;;1.53;;
17842;SDS011;69286;48.222;16.332;2023-08-06T03:41:42;2.50;;;1.80;;
17842;SDS011;69286;48.222;16.332;2023-08-06T03:44:09;1.80;;;1.70;;
17842;SDS011;69286;48.222;16.332;2023-08-06T03:46:36;1.80;;;1.70;;
17842;SDS011;69286;48.222;16.332;2023-08-06T03:49:03;1.90;;;1.80;;
17842;SDS011;69286;48.222;16.332;2023-08-06T03:51:30;1.63;;;1.53;;
17842;SDS011;69286;48.222;16.332;2023-08-06T03:53:58;1.57;;;1.47;;
17842;SDS011;69286;48.222;16.332;2023-08-06T03:56:25;2.30;;;2.10;;
17842;SDS011;69286;48.222;16.332;2023-08-06T03:58:52;2.30;;;2.10;;
17842;SDS011;69286;48.222;16.332;2023-08-06T04:01:19;1.80;;;1.70;;
17842;SDS011;69286;48.222;16.332;2023-08-06T04:03:46;2.57;;;1.93;;
17842;SDS011;69286;48.222;16.332;2023-08-06T04:06:14;2.10;;;1.93;;
17842;SDS011;69286;48.222;16.332;2023-08-06T04:08:41;2.20;;;1.97;;
17842;SDS011;69286;48.222;16.332;2023-08-06T04:11:09;1.90;;;1.80;;
17842;SDS011;69286;48.222;16.332;2023-08-06T04:13:37;2.00;;;1.90;;
17842;SDS011;69286;48.222;16.332;2023-08-06T04:16:04;3.87;;;1.90;;
17842;SDS011;69286;48.222;16.332;2023-08-06T04:18:31;3.00;;;1.80;;
17842;SDS011;69286;48.222;16.332;2023-08-06T04:20:58;2.20;;;2.10;;
17842;SDS011;69286;48.222;16.332;2023-08-06T04:23:25;2.90;;;2.00;;
17842;SDS011;69286;48.222;16.332;2023-08-06T04:25:55;2.07;;;1.80;;
17842;SDS011;69286;48.222;16.332;2023-08-06T04:28:24;2.00;;;1.80;;
17842;SDS011;69286;48.222;16.332;2023-08-06T04:30:51;2.00;;;1.90;;
17842;SDS011;69286;48.222;16.332;2023-08-06T04:33:18;2.17;;;2.00;;
17842;SDS011;69286;48.222;16.332;2023-08-06T04:35:45;1.87;;;1.77;;
17842;SDS011;69286;48.222;16.332;2023-08-06T04:38:12;1.87;;;1.73;;
17842;SDS011;69286;48.222;16.332;2023-08-06T04:40:40;2.10;;;1.97;;
17842;SDS011;69286;48.222;16.332;2023-08-06T04:43:07;2.57;;;1.87;;
17842;SDS011;69286;48.222;16.332;2023-08-06T04:45:35;1.80;;;1.70;;
17842;SDS011;69286;48.222;16.332;2023-08-06T04:48:02;1.90;;;1.80;;
17842;SDS011;69286;48.222;16.332;2023-08-06T04:50:29;3.67;;;2.03;;
17842;SDS011;69286;48.222;16.332;2023-08-06T04:52:56;1.87;;;1.77;;
17842;SDS011;69286;48.222;16.332;2023-08-06T04:55:23;2.30;;;2.10;;
17842;SDS011;69286;48.222;16.332;2023-08-06T04:57:50;2.00;;;1.90;;
17842;SDS011;69286;48.222;16.332;2023-08-06T05:00:18;2.93;;;2.57;;
17842;SDS011;69286;48.222;16.332;2023-08-06T05:02:46;2.67;;;2.10;;
17842;SDS011;69286;48.222;16.332;2023-08-06T05:05:13;2.50;;;2.00;;
17842;SDS011;69286;48.222;16.332;2023-08-06T05:07:40;3.90;;;3.00;;
17842;SDS011;69286;48.222;16.332;2023-08-06T05:10:07;2.50;;;1.93;;
17842;SDS011;69286;48.222;16.332;2023-08-06T05:12:35;2.33;;;1.70;;
17842;SDS011;69286;48.222;16.332;2023-08-06T05:15:02;2.23;;;1.80;;
17842;SDS011;69286;48.222;16.332;2023-08-06T05:17:30;2.10;;;1.90;;
17842;SDS011;69286;48.222;16.332;2023-08-06T05:19:58;2.70;;;2.10;;
17842;SDS011;69286;48.222;16.332;2023-08-06T05:22:25;2.07;;;1.87;;
17842;SDS011;69286;48.222;16.332;2023-08-06T05:24:52;4.10;;;2.10;;
17842;SDS011;69286;48.222;16.332;2023-08-06T05:27:19;1.70;;;1.60;;
17842;SDS011;69286;48.222;16.332;2023-08-06T05:29:47;2.17;;;1.60;;
17842;SDS011;69286;48.222;16.332;2023-08-06T05:32:14;1.70;;;1.60;;
17842;SDS011;69286;48.222;16.332;2023-08-06T05:34:41;1.73;;;1.63;;
17842;SDS011;69286;48.222;16.332;2023-08-06T05:37:10;2.83;;;1.70;;
17842;SDS011;69286;48.222;16.332;2023-08-06T05:39:36;3.33;;;1.70;;
17842;SDS011;69286;48.222;16.332;2023-08-06T05:42:04;2.10;;;1.67;;
17842;SDS011;69286;48.222;16.332;2023-08-06T05:44:31;1.90;;;1.80;;
17842;SDS011;69286;48.222;16.332;2023-08-06T05:46:58;2.13;;;2.03;;
17842;SDS011;69286;48.222;16.332;2023-08-06T05:49:25;2.13;;;2.00;;
17842;SDS011;69286;48.222;16.332;2023-08-06T05:51:52;3.03;;;2.70;;
17842;SDS011;69286;48.222;16.332;2023-08-06T05:54:20;2.63;;;2.43;;
17842;SDS011;69286;48.222;16.332;2023-08-06T05:56:47;2.80;;;2.43;;
17842;SDS011;69286;48.222;16.332;2023-08-06T05:59:14;1.80;;;1.70;;
17842;SDS011;69286;48.222;16.332;2023-08-06T06:01:41;2.07;;;1.90;;
17842;SDS011;69286;48.222;16.332;2023-08-06T06:04:08;1.87;;;1.77;;
17842;SDS011;69286;48.222;16.332;2023-08-06T06:06:35;1.80;;;1.70;;
17842;SDS011;69286;48.222;16.332;2023-08-06T06:09:02;2.97;;;2.10;;
17842;SDS011;69286;48.222;16.332;2023-08-06T06:11:30;1.80;;;1.70;;
17842;SDS011;69286;48.222;16.332;2023-08-06T06:13:57;1.83;;;1.73;;
17842;SDS011;69286;48.222;16.332;2023-08-06T06:16:24;2.97;;;2.10;;
17842;SDS011;69286;48.222;16.332;2023-08-06T06:18:51;2.23;;;1.97;;
17842;SDS011;69286;48.222;16.332;2023-08-06T06:21:19;1.97;;;1.83;;
17842;SDS011;69286;48.222;16.332;2023-08-06T06:23:46;5.20;;;3.77;;
17842;SDS011;69286;48.222;16.332;2023-08-06T06:26:13;2.83;;;2.20;;
17842;SDS011;69286;48.222;16.332;2023-08-06T06:28:41;2.10;;;1.90;;
17842;SDS011;69286;48.222;16.332;2023-08-06T06:31:08;2.20;;;2.00;;
17842;SDS011;69286;48.222;16.332;2023-08-06T06:33:36;2.23;;;1.80;;
17842;SDS011;69286;48.222;16.332;2023-08-06T06:36:03;1.77;;;1.67;;
17842;SDS011;69286;48.222;16.332;2023-08-06T06:38:30;1.97;;;1.77;;
17842;SDS011;69286;48.222;16.332;2023-08-06T06:40:57;1.67;;;1.57;;
17842;SDS011;69286;48.222;16.332;2023-08-06T06:43:24;2.00;;;1.80;;
17842;SDS011;69286;48.222;16.332;2023-08-06T06:45:55;1.87;;;1.77;;
17842;SDS011;69286;48.222;16.332;2023-08-06T06:48:24;2.00;;;1.90;;
17842;SDS011;69286;48.222;16.332;2023-08-06T06:50:51;1.60;;;1.50;;
17842;SDS011;69286;48.222;16.332;2023-08-06T06:53:18;2.20;;;2.10;;
17842;SDS011;69286;48.222;16.332;2023-08-06T06:55:45;1.70;;;1.60;;
17842;SDS011;69286;48.222;16.332;2023-08-06T06:58:14;1.90;;;1.80;;
17842;SDS011;69286;48.222;16.332;2023-08-06T07:00:42;3.57;;;2.60;;
17842;SDS011;69286;48.222;16.332;2023-08-06T07:03:10;2.20;;;2.10;;
17842;SDS011;69286;48.222;16.332;2023-08-06T07:05:37;2.50;;;2.30;;
17842;SDS011;69286;48.222;16.332;2023-08-06T07:08:04;1.93;;;1.83;;
17842;SDS011;69286;48.222;16.332;2023-08-06T07:10:31;2.40;;;2.20;;
17842;SDS011;69286;48.222;16.332;2023-08-06T07:12:58;3.93;;;3.23;;
17842;SDS011;69286;48.222;16.332;2023-08-06T07:15:25;2.00;;;1.90;;
17842;SDS011;69286;48.222;16.332;2023-08-06T07:17:52;3.30;;;2.13;;
17842;SDS011;69286;48.222;16.332;2023-08-06T07:20:20;2.07;;;1.87;;
17842;SDS011;69286;48.222;16.332;2023-08-06T07:22:47;8.60;;;1.80;;
17842;SDS011;69286;48.222;16.332;2023-08-06T07:25:15;1.80;;;1.70;;
17842;SDS011;69286;48.222;16.332;2023-08-06T07:27:42;1.97;;;1.67;;
17842;SDS011;69286;48.222;16.332;2023-08-06T07:30:10;1.30;;;1.30;;
17842;SDS011;69286;48.222;16.332;2023-08-06T07:32:37;1.63;;;1.53;;
17842;SDS011;69286;48.222;16.332;2023-08-06T07:35:05;1.90;;;1.80;;
17842;SDS011;69286;48.222;16.332;2023-08-06T07:37:35;2.57;;;2.37;;
17842;SDS011;69286;48.222;16.332;2023-08-06T07:40:03;2.90;;;2.70;;
17842;SDS011;69286;48.222;16.332;2023-08-06T07:42:30;2.03;;;1.80;;
17842;SDS011;69286;48.222;16.332;2023-08-06T07:44:58;1.90;;;1.60;;
17842;SDS011;69286;48.222;16.332;2023-08-06T07:47:25;1.83;;;1.73;;
17842;SDS011;69286;48.222;16.332;2023-08-06T07:49:52;2.50;;;2.20;;
17842;SDS011;69286;48.222;16.332;2023-08-06T07:52:19;3.03;;;2.40;;
17842;SDS011;69286;48.222;16.332;2023-08-06T07:54:47;2.73;;;2.50;;
17842;SDS011;69286;48.222;16.332;2023-08-06T07:57:14;2.40;;;2.20;;
17842;SDS011;69286;48.222;16.332;2023-08-06T07:59:42;2.30;;;2.13;;
17842;SDS011;69286;48.222;16.332;2023-08-06T08:02:09;2.20;;;2.07;;
17842;SDS011;69286;48.222;16.332;2023-08-06T08:04:36;2.17;;;1.90;;
17842;SDS011;69286;48.222;16.332;2023-08-06T08:07:03;2.43;;;2.23;;
17842;SDS011;69286;48.222;16.332;2023-08-06T08:09:31;3.77;;;2.00;;
17842;SDS011;69286;48.222;16.332;2023-08-06T08:11:59;1.87;;;1.77;;
17842;SDS011;69286;48.222;16.332;2023-08-06T08:14:27;2.10;;;1.90;;
17842;SDS011;69286;48.222;16.332;2023-08-06T08:17:00;2.43;;;2.30;;
17842;SDS011;69286;48.222;16.332;2023-08-06T08:19:27;2.03;;;1.87;;
17842;SDS011;69286;48.222;16.332;2023-08-06T08:21:54;2.37;;;2.17;;
17842;SDS011;69286;48.222;16.332;2023-08-06T08:24:21;3.27;;;2.03;;
17842;SDS011;69286;48.222;16.332;2023-08-06T08:26:49;2.20;;;2.00;;
17842;SDS011;69286;48.222;16.332;2023-08-06T08:29:19;4.37;;;2.10;;
17842;SDS011;69286;48.222;16.332;2023-08-06T08:31:46;2.40;;;2.20;;
17842;SDS011;69286;48.222;16.332;2023-08-06T08:34:15;2.23;;;2.07;;
17842;SDS011;69286;48.222;16.332;2023-08-06T08:36:42;3.50;;;2.43;;
17842;SDS011;69286;48.222;16.332;2023-08-06T08:39:12;2.10;;;2.00;;
17842;SDS011;69286;48.222;16.332;2023-08-06T08:41:39;2.57;;;2.37;;
17842;SDS011;69286;48.222;16.332;2023-08-06T08:44:07;4.00;;;2.50;;
17842;SDS011;69286;48.222;16.332;2023-08-06T08:46:37;2.40;;;2.20;;
17842;SDS011;69286;48.222;16.332;2023-08-06T08:49:06;2.93;;;2.47;;
17842;SDS011;69286;48.222;16.332;2023-08-06T08:51:33;2.50;;;2.27;;
17842;SDS011;69286;48.222;16.332;2023-08-06T08:54:01;3.23;;;2.20;;
17842;SDS011;69286;48.222;16.332;2023-08-06T08:56:29;2.40;;;2.20;;
17842;SDS011;69286;48.222;16.332;2023-08-06T08:58:57;2.30;;;2.10;;
17842;SDS011;69286;48.222;16.332;2023-08-06T09:01:24;2.07;;;1.97;;
17842;SDS011;69286;48.222;16.332;2023-08-06T09:03:53;2.03;;;1.93;;
17842;SDS011;69286;48.222;16.332;2023-08-06T09:06:22;4.13;;;3.20;;
17842;SDS011;69286;48.222;16.332;2023-08-06T09:08:55;5.97;;;3.10;;
17842;SDS011;69286;48.222;16.332;2023-08-06T09:11:27;3.23;;;2.90;;
17842;SDS011;69286;48.222;16.332;2023-08-06T09:13:56;2.47;;;2.17;;
17842;SDS011;69286;48.222;16.332;2023-08-06T09:16:25;2.50;;;2.30;;
17842;SDS011;69286;48.222;16.332;2023-08-06T09:18:53;4.77;;;2.50;;
17842;SDS011;69286;48.222;16.332;2023-08-06T09:21:20;3.20;;;2.50;;
17842;SDS011;69286;48.222;16.332;2023-08-06T09:23:48;4.13;;;2.77;;
17842;SDS011;69286;48.222;16.332;2023-08-06T09:26:15;2.87;;;2.50;;
17842;SDS011;69286;48.222;16.332;2023-08-06T09:28:42;2.70;;;2.50;;
17842;SDS011;69286;48.222;16.332;2023-08-06T09:31:09;2.90;;;2.60;;
17842;SDS011;69286;48.222;16.332;2023-08-06T09:33:36;2.93;;;2.60;;
17842;SDS011;69286;48.222;16.332;2023-08-06T09:36:08;3.87;;;3.50;;
17842;SDS011;69286;48.222;16.332;2023-08-06T09:38:37;3.80;;;3.23;;
17842;SDS011;69286;48.222;16.332;2023-08-06T09:41:05;3.40;;;3.10;;
17842;SDS011;69286;48.222;16.332;2023-08-06T09:43:39;3.33;;;3.00;;
17842;SDS011;69286;48.222;16.332;2023-08-06T09:46:10;2.70;;;2.50;;
17842;SDS011;69286;48.222;16.332;2023-08-06T09:48:39;2.33;;;2.13;;
17842;SDS011;69286;48.222;16.332;2023-08-06T09:51:08;3.10;;;2.50;;
17842;SDS011;69286;48.222;16.332;2023-08-06T09:53:35;3.27;;;2.30;;
17842;SDS011;69286;48.222;16.332;2023-08-06T09:56:04;3.10;;;2.30;;
17842;SDS011;69286;48.222;16.332;2023-08-06T09:58:32;2.43;;;2.23;;
17842;SDS011;69286;48.222;16.332;2023-08-06T10:00:59;2.80;;;1.70;;
17842;SDS011;69286;48.222;16.332;2023-08-06T10:03:28;2.30;;;2.10;;
17842;SDS011;69286;48.222;16.332;2023-08-06T10:05:56;1.77;;;1.67;;
17842;SDS011;69286;48.222;16.332;2023-08-06T10:08:32;1.93;;;1.83;;
17842;SDS011;69286;48.222;16.332;2023-08-06T10:10:59;2.33;;;1.80;;
17842;SDS011;69286;48.222;16.332;2023-08-06T10:13:29;2.20;;;2.00;;
17842;SDS011;69286;48.222;16.332;2023-08-06T10:15:57;2.13;;;2.00;;
17842;SDS011;69286;48.222;16.332;2023-08-06T10:18:24;1.97;;;1.80;;
17842;SDS011;69286;48.222;16.332;2023-08-06T10:20:52;2.70;;;2.33;;
17842;SDS011;69286;48.222;16.332;2023-08-06T10:23:19;3.50;;;1.90;;
17842;SDS011;69286;48.222;16.332;2023-08-06T10:26:00;3.67;;;2.30;;
17842;SDS011;69286;48.222;16.332;2023-08-06T10:28:33;2.40;;;2.20;;
17842;SDS011;69286;48.222;16.332;2023-08-06T10:31:01;3.63;;;2.83;;
17842;SDS011;69286;48.222;16.332;2023-08-06T10:33:39;2.63;;;2.43;;
17842;SDS011;69286;48.222;16.332;2023-08-06T10:36:08;2.80;;;2.60;;
17842;SDS011;69286;48.222;16.332;2023-08-06T10:38:36;3.20;;;2.90;;
17842;SDS011;69286;48.222;16.332;2023-08-06T10:41:16;2.50;;;2.30;;
17842;SDS011;69286;48.222;16.332;2023-08-06T10:43:48;4.63;;;2.27;;
17842;SDS011;69286;48.222;16.332;2023-08-06T10:46:23;3.37;;;2.60;;
17842;SDS011;69286;48.222;16.332;2023-08-06T10:48:53;4.00;;;2.70;;
17842;SDS011;69286;48.222;16.332;2023-08-06T10:51:21;3.33;;;3.03;;
17842;SDS011;69286;48.222;16.332;2023-08-06T10:53:49;4.83;;;2.93;;
17842;SDS011;69286;48.222;16.332;2023-08-06T10:56:18;2.73;;;2.53;;
17842;SDS011;69286;48.222;16.332;2023-08-06T10:58:47;6.10;;;2.83;;
17842;SDS011;69286;48.222;16.332;2023-08-06T11:01:14;4.23;;;3.10;;
17842;SDS011;69286;48.222;16.332;2023-08-06T11:03:42;5.97;;;3.30;;
17842;SDS011;69286;48.222;16.332;2023-08-06T11:06:10;5.33;;;3.77;;
17842;SDS011;69286;48.222;16.332;2023-08-06T11:08:37;7.37;;;4.20;;
17842;SDS011;69286;48.222;16.332;2023-08-06T11:11:10;4.53;;;3.50;;
17842;SDS011;69286;48.222;16.332;2023-08-06T11:13:39;5.97;;;3.80;;
17842;SDS011;69286;48.222;16.332;2023-08-06T11:16:07;7.07;;;4.53;;
17842;SDS011;69286;48.222;16.332;2023-08-06T11:18:34;5.40;;;4.17;;
17842;SDS011;69286;48.222;16.332;2023-08-06T11:21:02;16.00;;;5.03;;
17842;SDS011;69286;48.222;16.332;2023-08-06T11:23:29;8.97;;;5.40;;
17842;SDS011;69286;48.222;16.332;2023-08-06T11:25:57;11.27;;;5.50;;
17842;SDS011;69286;48.222;16.332;2023-08-06T11:28:24;9.23;;;6.20;;
17842;SDS011;69286;48.222;16.332;2023-08-06T11:30:53;13.27;;;8.73;;
17842;SDS011;69286;48.222;16.332;2023-08-06T11:33:22;8.07;;;4.90;;
17842;SDS011;69286;48.222;16.332;2023-08-06T11:35:50;8.60;;;4.13;;
17842;SDS011;69286;48.222;16.332;2023-08-06T11:38:17;4.37;;;3.20;;
17842;SDS011;69286;48.222;16.332;2023-08-06T11:40:45;4.50;;;3.10;;
17842;SDS011;69286;48.222;16.332;2023-08-06T11:43:12;4.57;;;3.77;;
17842;SDS011;69286;48.222;16.332;2023-08-06T11:45:40;3.47;;;2.70;;
17842;SDS011;69286;48.222;16.332;2023-08-06T11:48:09;3.00;;;2.70;;
17842;SDS011;69286;48.222;16.332;2023-08-06T11:50:36;6.17;;;2.80;;
17842;SDS011;69286;48.222;16.332;2023-08-06T11:53:04;3.80;;;2.80;;
17842;SDS011;69286;48.222;16.332;2023-08-06T11:55:31;4.53;;;3.23;;
17842;SDS011;69286;48.222;16.332;2023-08-06T11:58:02;2.90;;;2.60;;
17842;SDS011;69286;48.222;16.332;2023-08-06T12:00:29;4.00;;;3.03;;
17842;SDS011;69286;48.222;16.332;2023-08-06T12:02:57;3.83;;;2.43;;
17842;SDS011;69286;48.222;16.332;2023-08-06T12:05:30;6.87;;;3.13;;
17842;SDS011;69286;48.222;16.332;2023-08-06T12:07:58;3.40;;;2.77;;
17842;SDS011;69286;48.222;16.332;2023-08-06T12:10:26;3.97;;;3.27;;
17842;SDS011;69286;48.222;16.332;2023-08-06T12:12:54;3.40;;;2.90;;
17842;SDS011;69286;48.222;16.332;2023-08-06T12:15:21;4.43;;;2.70;;
17842;SDS011;69286;48.222;16.332;2023-08-06T12:17:49;5.10;;;3.10;;
17842;SDS011;69286;48.222;16.332;2023-08-06T12:20:16;3.57;;;2.70;;
17842;SDS011;69286;48.222;16.332;2023-08-06T12:22:45;5.20;;;2.80;;
17842;SDS011;69286;48.222;16.332;2023-08-06T12:25:12;5.43;;;3.17;;
17842;SDS011;69286;48.222;16.332;2023-08-06T12:27:40;9.73;;;5.50;;
17842;SDS011;69286;48.222;16.332;2023-08-06T12:30:08;5.73;;;4.30;;
17842;SDS011;69286;48.222;16.332;2023-08-06T12:32:36;14.83;;;7.70;;
17842;SDS011;69286;48.222;16.332;2023-08-06T12:35:04;9.63;;;5.33;;
17842;SDS011;69286;48.222;16.332;2023-08-06T12:37:32;28.77;;;16.87;;
17842;SDS011;69286;48.222;16.332;2023-08-06T12:40:01;17.83;;;11.17;;
17842;SDS011;69286;48.222;16.332;2023-08-06T12:42:28;15.00;;;9.93;;
17842;SDS011;69286;48.222;16.332;2023-08-06T12:44:55;9.87;;;6.43;;
17842;SDS011;69286;48.222;16.332;2023-08-06T12:47:22;28.83;;;15.13;;
17842;SDS011;69286;48.222;16.332;2023-08-06T12:49:50;20.63;;;11.90;;
17842;SDS011;69286;48.222;16.332;2023-08-06T12:52:17;11.37;;;7.50;;
17842;SDS011;69286;48.222;16.332;2023-08-06T12:54:44;5.87;;;4.20;;
17842;SDS011;69286;48.222;16.332;2023-08-06T12:57:13;16.27;;;10.57;;
17842;SDS011;69286;48.222;16.332;2023-08-06T12:59:40;9.23;;;6.27;;
17842;SDS011;69286;48.222;16.332;2023-08-06T13:02:08;6.40;;;4.83;;
17842;SDS011;69286;48.222;16.332;2023-08-06T13:04:37;15.77;;;9.93;;
17842;SDS011;69286;48.222;16.332;2023-08-06T13:07:05;11.80;;;7.93;;
17842;SDS011;69286;48.222;16.332;2023-08-06T13:09:34;10.47;;;4.77;;
17842;SDS011;69286;48.222;16.332;2023-08-06T13:12:02;12.40;;;8.97;;
17842;SDS011;69286;48.222;16.332;2023-08-06T13:14:33;11.90;;;6.30;;
17842;SDS011;69286;48.222;16.332;2023-08-06T13:17:01;6.57;;;4.20;;
17842;SDS011;69286;48.222;16.332;2023-08-06T13:19:32;9.73;;;6.47;;
17842;SDS011;69286;48.222;16.332;2023-08-06T13:22:01;16.40;;;10.37;;
17842;SDS011;69286;48.222;16.332;2023-08-06T13:24:32;25.30;;;13.60;;
17842;SDS011;69286;48.222;16.332;2023-08-06T13:27:00;17.60;;;11.63;;
17842;SDS011;69286;48.222;16.332;2023-08-06T13:29:29;7.07;;;5.30;;
17842;SDS011;69286;48.222;16.332;2023-08-06T13:31:59;9.27;;;5.07;;
17842;SDS011;69286;48.222;16.332;2023-08-06T13:34:27;7.77;;;4.63;;
17842;SDS011;69286;48.222;16.332;2023-08-06T13:36:55;5.03;;;3.87;;
17842;SDS011;69286;48.222;16.332;2023-08-06T13:39:24;3.83;;;2.90;;
17842;SDS011;69286;48.222;16.332;2023-08-06T13:41:52;3.93;;;2.97;;
17842;SDS011;69286;48.222;16.332;2023-08-06T13:44:20;3.47;;;2.60;;
17842;SDS011;69286;48.222;16.332;2023-08-06T13:46:49;5.27;;;2.87;;
17842;SDS011;69286;48.222;16.332;2023-08-06T13:49:19;4.03;;;2.40;;
17842;SDS011;69286;48.222;16.332;2023-08-06T13:51:47;3.57;;;2.90;;
17842;SDS011;69286;48.222;16.332;2023-08-06T13:54:15;2.90;;;2.60;;
17842;SDS011;69286;48.222;16.332;2023-08-06T13:56:46;3.17;;;2.60;;
17842;SDS011;69286;48.222;16.332;2023-08-06T13:59:15;3.80;;;2.37;;
17842;SDS011;69286;48.222;16.332;2023-08-06T14:01:45;8.33;;;5.30;;
17842;SDS011;69286;48.222;16.332;2023-08-06T14:04:13;4.23;;;2.70;;
17842;SDS011;69286;48.222;16.332;2023-08-06T14:06:43;5.50;;;3.63;;
17842;SDS011;69286;48.222;16.332;2023-08-06T14:09:12;4.33;;;2.47;;
17842;SDS011;69286;48.222;16.332;2023-08-06T14:11:44;2.20;;;1.87;;
17842;SDS011;69286;48.222;16.332;2023-08-06T14:14:12;2.53;;;1.80;;
17842;SDS011;69286;48.222;16.332;2023-08-06T14:16:41;1.70;;;1.60;;
17842;SDS011;69286;48.222;16.332;2023-08-06T14:19:09;2.20;;;2.00;;
17842;SDS011;69286;48.222;16.332;2023-08-06T14:21:37;3.10;;;2.13;;
17842;SDS011;69286;48.222;16.332;2023-08-06T14:24:08;5.80;;;3.23;;
17842;SDS011;69286;48.222;16.332;2023-08-06T14:26:36;5.70;;;3.83;;
17842;SDS011;69286;48.222;16.332;2023-08-06T14:29:05;4.93;;;3.60;;
17842;SDS011;69286;48.222;16.332;2023-08-06T14:31:33;3.90;;;2.50;;
17842;SDS011;69286;48.222;16.332;2023-08-06T14:34:02;8.53;;;4.57;;
17842;SDS011;69286;48.222;16.332;2023-08-06T14:36:30;1.87;;;1.30;;
17842;SDS011;69286;48.222;16.332;2023-08-06T14:38:59;1.73;;;1.30;;